Terminal Aerodrome Forecast
Issued by NWS

Home | Current Version | Previous Version | Text Only | Print | Product List | Glossary On
Versions: 1 2 3 4 5 6 7 8 9 10 11 12 13 14 15 16 17 18 19 20 21 22
010
FTUS41 KGYX 221120
TAFAUG
TAF
KAUG 221120Z 2212/2312 17004KT P6SM OVC120
     FM221300 22007KT P6SM SCT080 SCT100
     FM221700 28010G18KT P6SM SCT120
      TEMPO 2218/2221 6SM -SHRA BKN050 OVC080
     FM230000 31010KT P6SM SKC=

USA.gov is the U.S. government's official web portal to all federal, state and local government web resources and services.